Volcan De Teneguia — ECLA — position and weather

sailwx.info

Track history (hours):
 
Tides and Currents Weather Stations Pressure Air Temp Water Temp Dewpoint Dewpoint Depression Visibility Wind Speed Wind Dir Waves Ship Positions

Volcan De Teneguia

Last reported at 2016-Jul-28 00:32 UTC. Time now 2016-Jul-28 02:58 UTC.
Position N 31°30' W 012°35'.

Length 145 m; draft 5.2 m.

Type: Cargo ship. MMSI: 225317000.

Date/timePositionNaut miles runAvg speedWind from/ knotsBaromVisibWave heightAir tempDewpointWater temp
2016-Jul-28 00:32N 31°30' W 012°35'10714.4
2016-Jul-27 17:08N 32°44' W 011°05'13114.5
2016-Jul-27 08:04N 34°17' W 009°14'714.1
2016-Jul-27 07:33N 34°22' W 009°08'4314.2
2016-Jul-27 04:30N 34°51' W 008°29'1414.4
2016-Jul-27 03:31N 35°01' W 008°16'1414.1
2016-Jul-27 02:33N 35°11' W 008°05'1413.8
2016-Jul-27 01:30N 35°21' W 007°52'1314.0
2016-Jul-27 00:33N 35°30' W 007°40'1414.2
2016-Jul-26 23:33N 35°40' W 007°28'1414.2
2016-Jul-26 22:33N 35°50' W 007°15'1514.4
2016-Jul-26 21:33N 35°60' W 007°02'3014.3
2016-Jul-26 19:25N 36°21' W 006°36'45 1.0
2016-Jul-25 00:33N 35°46' W 007°11'5412.8
2016-Jul-24 20:21N 35°04' W 007°51'4013.8
2016-Jul-24 17:29N 34°34' W 008°22'1314.1
2016-Jul-24 16:33N 34°23' W 008°32'1514.0
2016-Jul-24 15:31N 34°12' W 008°43'1514.0
2016-Jul-24 14:28N 34°01' W 008°54'1313.9
2016-Jul-24 13:33N 33°51' W 009°04'3313.9
2016-Jul-24 11:12N 33°26' W 009°30'13213.6
2016-Jul-24 01:32N 31°52' W 011°19'1313.1
2016-Jul-24 00:33N 31°44' W 011°31'1413.2
2016-Jul-23 23:31N 31°35' W 011°43'1313.1
2016-Jul-23 22:33N 31°27' W 011°54'1313.0
2016-Jul-23 21:33N 31°19' W 012°06'1412.9
2016-Jul-23 20:29N 31°10' W 012°19'7612.7
2016-Jul-23 14:28N 30°22' W 013°27'1412.2
2016-Jul-23 13:22N 30°13' W 013°39'1111.9
2016-Jul-23 12:25N 30°05' W 013°49'1012.0
2016-Jul-23 11:33N 29°59' W 013°58'1411.9
2016-Jul-23 10:25N 29°51' W 014°11'1412.0
2016-Jul-23 09:16N 29°42' W 014°23'811.7
2016-Jul-23 08:33N 29°37' W 014°30'1212.3
2016-Jul-23 07:33N 29°29' W 014°41'1212.2
2016-Jul-23 06:33N 29°21' W 014°52'2412.1
2016-Jul-23 04:33N 29°06' W 015°14'1211.7
2016-Jul-23 03:33N 28°59' W 015°25'1211.9
2016-Jul-23 02:33N 28°52' W 015°36'1212.1
2016-Jul-23 01:33N 28°44' W 015°46'1212.2
2016-Jul-23 00:33N 28°37' W 015°57'1212.3
2016-Jul-22 23:33N 28°29' W 016°08'5 4.7
2016-Jul-22 22:33N 28°29' W 016°14'0 0.0
2016-Jul-22 21:33N 28°29' W 016°14'0 0.0
2016-Jul-22 20:33N 28°29' W 016°14'0 0.0
2016-Jul-22 19:33N 28°29' W 016°14'0 0.0
2016-Jul-22 18:33N 28°29' W 016°14'8 8.0
2016-Jul-22 17:33N 28°25' W 016°06'1313.4
2016-Jul-22 16:33N 28°19' W 015°52'1413.6
2016-Jul-22 15:33N 28°13' W 015°38'1413.9
2016-Jul-22 14:33N 28°11' W 015°23'3 2.7
2016-Jul-22 13:32N 28°09' W 015°25'0 0.0
2016-Jul-22 12:32N 28°09' W 015°25'0 0.0
2016-Jul-22 11:32N 28°09' W 015°25'0 0.0
2016-Jul-22 10:32N 28°09' W 015°25'0 0.0
2016-Jul-22 09:32N 28°09' W 015°25'0 0.0
2016-Jul-22 08:32N 28°09' W 015°25'0 0.0
2016-Jul-22 07:32N 28°09' W 015°25'3 1.4
2016-Jul-22 05:33N 28°07' W 015°23'1111.0
2016-Jul-22 04:33N 28°18' W 015°22'1010.4
2016-Jul-22 03:33N 28°20' W 015°33'10 9.7
2016-Jul-22 02:33N 28°19' W 015°44'20 9.9
2016-Jul-22 00:33N 28°24' W 016°06'9 8.7
2016-Jul-21 23:33N 28°29' W 016°14'0 0.0
2016-Jul-21 22:22N 28°29' W 016°14'0 0.0
2016-Jul-21 21:25N 28°29' W 016°14'0 0.0
2016-Jul-21 20:07N 28°29' W 016°14'0 0.0
2016-Jul-21 19:25N 28°29' W 016°14'0 0.3
2016-Jul-21 18:33N 28°29' W 016°14'1512.2
2016-Jul-21 17:20N 28°36' W 015°59'1114.5
2016-Jul-21 16:33N 28°44' W 015°50'1514.6
2016-Jul-21 15:33N 28°55' W 015°38'1414.5
2016-Jul-21 14:33N 29°05' W 015°26'1514.6
2016-Jul-21 13:33N 29°15' W 015°14'1514.5
2016-Jul-21 12:33N 29°25' W 015°03'1614.8
2016-Jul-21 11:30N 29°36' W 014°50'1514.9
2016-Jul-21 10:30N 29°46' W 014°37'1414.6
2016-Jul-21 09:33N 29°56' W 014°26'2014.6
2016-Jul-21 08:12N 30°10' W 014°09'1015.0
2016-Jul-21 07:33N 30°17' W 014°02'1514.9
2016-Jul-21 06:33N 30°27' W 013°49'3515.2
2016-Jul-21 04:14N 30°52' W 013°20'2514.7
2016-Jul-21 02:32N 31°09' W 012°59'1714.7
2016-Jul-21 01:24N 31°21' W 012°45'1214.7
2016-Jul-21 00:33N 31°30' W 012°35'3314.8
2016-Jul-20 22:20N 31°53' W 012°08'1214.7
2016-Jul-20 21:33N 32°01' W 011°58'1614.7
2016-Jul-20 20:28N 32°12' W 011°45'1415.0
2016-Jul-20 19:32N 32°22' W 011°33'1515.0
2016-Jul-20 18:30N 32°33' W 011°19'3315.2
2016-Jul-20 16:20N 32°54' W 010°50'1215.2
2016-Jul-20 15:33N 33°03' W 010°39'1312.9
2016-Jul-20 14:33N 33°13' W 010°30'  
Track history (hours):
 
Tides and Currents Weather Stations Pressure Air Temp Water Temp Dewpoint Dewpoint Depression Visibility Wind Speed Wind Dir Waves Ship Positions

Volcan De Teneguia

Last reported at 2016-Jul-28 00:32 UTC. Time now 2016-Jul-28 02:58 UTC.
Position N 31°30' W 012°35'.

Length 145 m; draft 5.2 m.

Type: Cargo ship. MMSI: 225317000.

Date/timePositionNaut miles runAvg speedWind from/ knotsBaromVisibWave heightAir tempDewpointWater temp
2016-Jul-28 00:32N 31°30' W 012°35'10714.4
2016-Jul-27 17:08N 32°44' W 011°05'13114.5
2016-Jul-27 08:04N 34°17' W 009°14'714.1
2016-Jul-27 07:33N 34°22' W 009°08'4314.2
2016-Jul-27 04:30N 34°51' W 008°29'1414.4
2016-Jul-27 03:31N 35°01' W 008°16'1414.1
2016-Jul-27 02:33N 35°11' W 008°05'1413.8
2016-Jul-27 01:30N 35°21' W 007°52'1314.0
2016-Jul-27 00:33N 35°30' W 007°40'1414.2
2016-Jul-26 23:33N 35°40' W 007°28'1414.2
2016-Jul-26 22:33N 35°50' W 007°15'1514.4
2016-Jul-26 21:33N 35°60' W 007°02'3014.3
2016-Jul-26 19:25N 36°21' W 006°36'45 1.0
2016-Jul-25 00:33N 35°46' W 007°11'5412.8
2016-Jul-24 20:21N 35°04' W 007°51'4013.8
2016-Jul-24 17:29N 34°34' W 008°22'1314.1
2016-Jul-24 16:33N 34°23' W 008°32'1514.0
2016-Jul-24 15:31N 34°12' W 008°43'1514.0
2016-Jul-24 14:28N 34°01' W 008°54'1313.9
2016-Jul-24 13:33N 33°51' W 009°04'3313.9
2016-Jul-24 11:12N 33°26' W 009°30'13213.6
2016-Jul-24 01:32N 31°52' W 011°19'1313.1
2016-Jul-24 00:33N 31°44' W 011°31'1413.2
2016-Jul-23 23:31N 31°35' W 011°43'1313.1
2016-Jul-23 22:33N 31°27' W 011°54'1313.0
2016-Jul-23 21:33N 31°19' W 012°06'1412.9
2016-Jul-23 20:29N 31°10' W 012°19'7612.7
2016-Jul-23 14:28N 30°22' W 013°27'1412.2
2016-Jul-23 13:22N 30°13' W 013°39'1111.9
2016-Jul-23 12:25N 30°05' W 013°49'1012.0
2016-Jul-23 11:33N 29°59' W 013°58'1411.9
2016-Jul-23 10:25N 29°51' W 014°11'1412.0
2016-Jul-23 09:16N 29°42' W 014°23'811.7
2016-Jul-23 08:33N 29°37' W 014°30'1212.3
2016-Jul-23 07:33N 29°29' W 014°41'1212.2
2016-Jul-23 06:33N 29°21' W 014°52'2412.1
2016-Jul-23 04:33N 29°06' W 015°14'1211.7
2016-Jul-23 03:33N 28°59' W 015°25'1211.9
2016-Jul-23 02:33N 28°52' W 015°36'1212.1
2016-Jul-23 01:33N 28°44' W 015°46'1212.2
2016-Jul-23 00:33N 28°37' W 015°57'1212.3
2016-Jul-22 23:33N 28°29' W 016°08'5 4.7
2016-Jul-22 22:33N 28°29' W 016°14'0 0.0
2016-Jul-22 21:33N 28°29' W 016°14'0 0.0
2016-Jul-22 20:33N 28°29' W 016°14'0 0.0
2016-Jul-22 19:33N 28°29' W 016°14'0 0.0
2016-Jul-22 18:33N 28°29' W 016°14'8 8.0
2016-Jul-22 17:33N 28°25' W 016°06'1313.4
2016-Jul-22 16:33N 28°19' W 015°52'1413.6
2016-Jul-22 15:33N 28°13' W 015°38'1413.9
2016-Jul-22 14:33N 28°11' W 015°23'3 2.7
2016-Jul-22 13:32N 28°09' W 015°25'0 0.0
2016-Jul-22 12:32N 28°09' W 015°25'0 0.0
2016-Jul-22 11:32N 28°09' W 015°25'0 0.0
2016-Jul-22 10:32N 28°09' W 015°25'0 0.0
2016-Jul-22 09:32N 28°09' W 015°25'0 0.0
2016-Jul-22 08:32N 28°09' W 015°25'0 0.0
2016-Jul-22 07:32N 28°09' W 015°25'3 1.4
2016-Jul-22 05:33N 28°07' W 015°23'1111.0
2016-Jul-22 04:33N 28°18' W 015°22'1010.4
2016-Jul-22 03:33N 28°20' W 015°33'10 9.7
2016-Jul-22 02:33N 28°19' W 015°44'20 9.9
2016-Jul-22 00:33N 28°24' W 016°06'9 8.7
2016-Jul-21 23:33N 28°29' W 016°14'0 0.0
2016-Jul-21 22:22N 28°29' W 016°14'0 0.0
2016-Jul-21 21:25N 28°29' W 016°14'0 0.0
2016-Jul-21 20:07N 28°29' W 016°14'0 0.0
2016-Jul-21 19:25N 28°29' W 016°14'0 0.3
2016-Jul-21 18:33N 28°29' W 016°14'1512.2
2016-Jul-21 17:20N 28°36' W 015°59'1114.5
2016-Jul-21 16:33N 28°44' W 015°50'1514.6
2016-Jul-21 15:33N 28°55' W 015°38'1414.5
2016-Jul-21 14:33N 29°05' W 015°26'1514.6
2016-Jul-21 13:33N 29°15' W 015°14'1514.5
2016-Jul-21 12:33N 29°25' W 015°03'1614.8
2016-Jul-21 11:30N 29°36' W 014°50'1514.9
2016-Jul-21 10:30N 29°46' W 014°37'1414.6
2016-Jul-21 09:33N 29°56' W 014°26'2014.6
2016-Jul-21 08:12N 30°10' W 014°09'1015.0
2016-Jul-21 07:33N 30°17' W 014°02'1514.9
2016-Jul-21 06:33N 30°27' W 013°49'3515.2
2016-Jul-21 04:14N 30°52' W 013°20'2514.7
2016-Jul-21 02:32N 31°09' W 012°59'1714.7
2016-Jul-21 01:24N 31°21' W 012°45'1214.7
2016-Jul-21 00:33N 31°30' W 012°35'3314.8
2016-Jul-20 22:20N 31°53' W 012°08'1214.7
2016-Jul-20 21:33N 32°01' W 011°58'1614.7
2016-Jul-20 20:28N 32°12' W 011°45'1415.0
2016-Jul-20 19:32N 32°22' W 011°33'1515.0
2016-Jul-20 18:30N 32°33' W 011°19'3315.2
2016-Jul-20 16:20N 32°54' W 010°50'1215.2
2016-Jul-20 15:33N 33°03' W 010°39'1312.9
2016-Jul-20 14:33N 33°13' W 010°30'  

Dump ship's entire track history